VOCB

Coimbatore International Airport

Coimbatore, India
TAF VOCB 221100Z 2212/2318 20010KT 6000 SCT015 TEMPO 2212/2215 SCT015 FEW020CB BKN080 BECMG 2221/2222 VRB02KT 5000 BR BECMG 2305/2306 20010KT 6000
Issued Valid From Valid To
Sep-22 @ 11:00 UTC
(4 hours ago)
Sep-22 @ 12:00 UTC
(3 hours ago)
Sep-23 @ 18:00 UTC
(-1 days ago)
to
to
to
to
TAF VOCB 221100Z 2212/2318 20010KT 6000 SCT015 TEMPO 2212/2215 SCT015 FEW020CB BKN080 BECMG 2221/2222 VRB02KT 5000 BR BECMG 2305/2306 20010KT 6000
Issued Sep-22 @ 11:00 UTC
(4 hours ago)
Valid From Sep-22 @ 12:00 UTC
(3 hours ago)
Valid To Sep-23 @ 18:00 UTC
(-1 days ago)
-
-
-
-